Metar Aviation Weather Data KPWM

72°F Temp
57°F Dewpoint
% Humidity
Temperature
12 MPH
19 KM/H
10 KTS
180°
Due South

Wind Speed
Clear
Conditions
Pressure 1021.02 (hPa) - 30.15 (in)
Visibility 10.0 (mi) - 16 (km)

Current Conditions
KPWM
Metar :KPWM 071951Z 18010G16KT 10SM CLR 22/14 A3015 RMK AO2 SLP208 T02170144
Tue 7th July 15:51 pm

  Metar Aviation API Data Provided by https://www.checkwx.com/ PHP scripts by weather34.com ©2020